createdAt,value
2022-10-06T00:00:43.843Z,12.54
2022-10-06T00:03:15.636Z,12.50
2022-10-06T00:05:45.025Z,12.48
2022-10-06T00:08:11.576Z,12.46
2022-10-06T00:10:38.340Z,12.46
2022-10-06T00:13:04.916Z,12.48
2022-10-06T00:15:32.464Z,12.40
2022-10-06T00:18:01.148Z,12.38
2022-10-06T00:20:28.920Z,12.33
2022-10-06T00:23:00.494Z,12.29
2022-10-06T00:25:28.139Z,12.25
2022-10-06T00:27:55.171Z,12.19
2022-10-06T00:30:26.199Z,12.16
2022-10-06T00:32:57.703Z,12.11
2022-10-06T00:35:25.941Z,12.06
2022-10-06T00:37:52.353Z,12.02
2022-10-06T00:40:19.326Z,12.00
2022-10-06T00:42:59.683Z,11.99
2022-10-06T00:45:37.229Z,11.98
2022-10-06T00:48:11.128Z,11.98
2022-10-06T00:50:38.749Z,11.98
2022-10-06T00:53:06.052Z,11.94
2022-10-06T00:55:32.541Z,11.93
2022-10-06T00:58:00.054Z,11.93
2022-10-06T01:00:27.130Z,11.92
2022-10-06T01:03:06.731Z,11.89
2022-10-06T01:05:39.051Z,11.84
2022-10-06T01:08:08.041Z,11.87
2022-10-06T01:10:34.708Z,11.83
2022-10-06T01:13:02.129Z,11.79
2022-10-06T01:15:28.953Z,11.72
2022-10-06T01:18:02.496Z,11.72
2022-10-06T01:20:31.751Z,11.71
2022-10-06T01:23:08.276Z,11.70
2022-10-06T01:25:37.176Z,11.69
2022-10-06T01:28:06.079Z,11.67
2022-10-06T01:30:39.067Z,11.64
2022-10-06T01:33:05.652Z,11.64
2022-10-06T01:35:32.078Z,11.64
2022-10-06T01:37:59.632Z,11.64
2022-10-06T01:40:29.303Z,11.64
2022-10-06T01:42:56.763Z,11.68
2022-10-06T01:45:23.178Z,11.69
2022-10-06T01:47:49.802Z,11.75
2022-10-06T01:50:18.457Z,11.79
2022-10-06T01:52:44.930Z,11.89
2022-10-06T01:55:14.540Z,11.90
2022-10-06T01:57:41.681Z,11.93
2022-10-06T02:00:11.626Z,12.00
2022-10-06T02:02:38.105Z,12.05
2022-10-06T02:05:07.400Z,12.12
2022-10-06T02:07:37.543Z,12.09
2022-10-06T02:10:05.777Z,12.09
2022-10-06T02:12:32.413Z,12.09
2022-10-06T02:14:59.241Z,12.14
2022-10-06T02:17:29.140Z,12.09
2022-10-06T02:19:55.604Z,12.08
2022-10-06T02:22:22.251Z,12.05
2022-10-06T02:24:50.846Z,12.02
2022-10-06T02:27:19.788Z,12.00
2022-10-06T02:29:51.249Z,11.99
2022-10-06T02:32:17.596Z,11.97
2022-10-06T02:34:43.973Z,11.97
2022-10-06T02:37:12.614Z,11.96
2022-10-06T02:39:39.057Z,11.99
2022-10-06T02:42:05.563Z,12.02
2022-10-06T02:44:32.012Z,12.05
2022-10-06T02:46:59.461Z,12.10
2022-10-06T02:49:28.436Z,12.19
2022-10-06T02:51:54.914Z,12.26
2022-10-06T02:54:22.413Z,12.30
2022-10-06T02:56:50.113Z,12.36
2022-10-06T02:59:16.512Z,12.34
2022-10-06T03:01:45.412Z,12.45
2022-10-06T03:04:12.012Z,12.42
2022-10-06T03:06:38.534Z,12.43
2022-10-06T03:09:07.401Z,12.57
2022-10-06T03:11:40.599Z,12.65
2022-10-06T03:14:07.534Z,12.65
2022-10-06T03:16:39.410Z,12.75
2022-10-06T03:19:06.757Z,12.79
2022-10-06T03:21:36.157Z,12.82
2022-10-06T03:24:02.939Z,12.92
2022-10-06T03:26:32.598Z,12.90
2022-10-06T03:29:00.156Z,13.02
2022-10-06T03:31:27.619Z,13.04
2022-10-06T03:33:56.749Z,13.12
2022-10-06T03:36:25.695Z,13.13
2022-10-06T03:38:52.288Z,13.13
2022-10-06T03:41:21.330Z,13.20
2022-10-06T03:43:49.202Z,13.22
2022-10-06T03:46:21.055Z,13.25
2022-10-06T03:48:49.449Z,13.27
2022-10-06T03:51:22.498Z,13.31
2022-10-06T03:53:51.426Z,13.40
2022-10-06T03:56:19.699Z,13.51
2022-10-06T03:58:54.972Z,13.61
2022-10-06T04:01:26.987Z,13.65
2022-10-06T04:03:57.244Z,13.61
2022-10-06T04:06:27.391Z,13.67
2022-10-06T04:08:55.017Z,13.68
2022-10-06T04:11:33.447Z,13.72
2022-10-06T04:14:05.162Z,13.76
2022-10-06T04:16:35.419Z,13.82
2022-10-06T04:19:04.645Z,13.81
2022-10-06T04:21:32.757Z,13.82
2022-10-06T04:24:00.232Z,13.80
2022-10-06T04:26:30.639Z,13.82
2022-10-06T04:28:57.133Z,13.84
2022-10-06T04:31:28.410Z,13.87
2022-10-06T04:33:57.395Z,13.90
2022-10-06T04:36:26.621Z,13.93
2022-10-06T04:38:58.547Z,13.98
2022-10-06T04:41:32.185Z,14.00
2022-10-06T04:43:59.429Z,13.99
2022-10-06T04:46:44.196Z,13.97
2022-10-06T04:49:17.891Z,13.97
2022-10-06T04:51:46.385Z,13.96
2022-10-06T04:54:12.822Z,13.95
2022-10-06T04:56:39.253Z,13.95
2022-10-06T04:59:05.630Z,13.95
2022-10-06T05:01:34.099Z,13.95
2022-10-06T05:04:02.061Z,13.95
2022-10-06T05:06:31.701Z,13.94
2022-10-06T05:09:00.625Z,13.94
2022-10-06T05:11:27.546Z,13.94
2022-10-06T05:13:56.111Z,13.92
2022-10-06T05:16:24.613Z,13.92
2022-10-06T05:18:53.564Z,13.90
2022-10-06T05:21:22.536Z,13.89
2022-10-06T05:23:49.192Z,13.87
2022-10-06T05:26:21.834Z,13.85
2022-10-06T05:28:48.588Z,13.87
2022-10-06T05:31:31.760Z,13.86
2022-10-06T05:33:59.254Z,13.83
2022-10-06T05:36:28.754Z,13.83
2022-10-06T05:38:56.162Z,13.81
2022-10-06T05:41:24.384Z,13.82
2022-10-06T05:43:51.693Z,13.81
2022-10-06T05:46:21.006Z,13.80
2022-10-06T05:48:49.124Z,13.79
2022-10-06T05:51:19.945Z,13.79
2022-10-06T05:53:47.512Z,13.81
2022-10-06T05:56:24.362Z,13.80
2022-10-06T05:58:53.343Z,13.82
2022-10-06T06:01:24.190Z,13.81
2022-10-06T06:03:55.358Z,13.82
2022-10-06T06:06:31.966Z,13.83
2022-10-06T06:09:02.440Z,13.84
2022-10-06T06:11:31.585Z,13.85
2022-10-06T06:14:02.742Z,13.85
2022-10-06T06:16:32.074Z,13.84
2022-10-06T06:18:59.999Z,13.85
2022-10-06T06:21:27.462Z,13.86
2022-10-06T06:23:54.536Z,13.85
2022-10-06T06:26:26.317Z,13.88
2022-10-06T06:28:54.401Z,13.93
2022-10-06T06:31:26.468Z,13.92
2022-10-06T06:33:54.023Z,13.95
2022-10-06T06:36:36.936Z,14.00
2022-10-06T06:39:05.799Z,14.05
2022-10-06T06:41:35.236Z,14.15
2022-10-06T06:44:04.779Z,14.20
2022-10-06T06:46:32.200Z,14.27
2022-10-06T06:49:04.092Z,14.31
2022-10-06T06:51:34.570Z,14.39
2022-10-06T06:54:03.983Z,14.45
2022-10-06T06:56:40.284Z,14.45
2022-10-06T06:59:10.784Z,14.47
2022-10-06T07:01:38.934Z,14.48
2022-10-06T07:04:06.247Z,14.49
2022-10-06T07:06:35.531Z,14.54
2022-10-06T07:09:01.905Z,14.59
2022-10-06T07:11:36.128Z,14.63
2022-10-06T07:14:05.829Z,14.70
2022-10-06T07:16:51.217Z,14.78
2022-10-06T07:19:37.639Z,14.87
2022-10-06T07:22:25.561Z,14.92
2022-10-06T07:25:07.810Z,15.00
2022-10-06T07:27:36.780Z,15.14
2022-10-06T07:30:04.967Z,15.24
2022-10-06T07:32:31.364Z,15.37
2022-10-06T07:34:58.770Z,15.53
2022-10-06T07:37:26.889Z,15.66
2022-10-06T07:39:53.385Z,15.65
2022-10-06T07:42:20.487Z,15.74
2022-10-06T07:45:05.910Z,15.81
2022-10-06T07:47:33.317Z,15.90
2022-10-06T07:49:59.922Z,15.97
2022-10-06T07:52:28.837Z,16.02
2022-10-06T07:54:56.358Z,16.11
2022-10-06T07:57:22.877Z,16.24
2022-10-06T07:59:51.891Z,16.25
2022-10-06T08:02:19.812Z,16.31
2022-10-06T08:04:46.258Z,16.42
2022-10-06T08:07:12.751Z,16.34
2022-10-06T08:09:39.135Z,16.20
2022-10-06T08:12:27.992Z,16.15
2022-10-06T08:14:54.652Z,16.25
2022-10-06T08:17:21.182Z,16.36
2022-10-06T08:19:47.964Z,16.35
2022-10-06T08:22:15.937Z,16.31
2022-10-06T08:25:08.404Z,16.34
2022-10-06T08:27:29.278Z,16.53
2022-10-06T08:29:58.525Z,16.48
2022-10-06T08:32:25.338Z,16.36
2022-10-06T08:34:57.437Z,16.31
2022-10-06T08:37:26.704Z,16.27
2022-10-06T08:39:54.495Z,16.22
2022-10-06T08:42:38.972Z,16.39
2022-10-06T08:45:16.979Z,16.27
2022-10-06T08:47:53.091Z,16.25
2022-10-06T08:50:22.154Z,16.11
2022-10-06T08:53:06.032Z,15.86
2022-10-06T08:55:42.053Z,15.95
2022-10-06T08:58:39.212Z,16.04
2022-10-06T09:01:18.751Z,16.29
2022-10-06T09:03:48.841Z,16.31
2022-10-06T09:07:09.203Z,16.54
2022-10-06T09:09:51.814Z,16.54
2022-10-06T09:12:32.417Z,16.71
2022-10-06T09:15:20.750Z,16.93
2022-10-06T09:18:01.944Z,17.02
2022-10-06T09:20:51.262Z,16.78
2022-10-06T09:23:39.518Z,16.58
2022-10-06T09:26:16.428Z,16.39
2022-10-06T09:28:46.420Z,16.34
2022-10-06T09:31:29.705Z,16.37
2022-10-06T09:34:04.389Z,16.34
2022-10-06T09:36:32.234Z,16.47
2022-10-06T09:39:00.018Z,16.62
2022-10-06T09:41:33.963Z,16.74
2022-10-06T09:44:05.162Z,16.76
2022-10-06T09:46:41.592Z,16.91
2022-10-06T09:49:17.659Z,17.03
2022-10-06T09:52:02.174Z,17.08
2022-10-06T09:54:29.753Z,17.17
2022-10-06T09:56:59.339Z,17.11
2022-10-06T09:59:41.719Z,17.19
2022-10-06T10:02:40.934Z,17.20
2022-10-06T10:05:21.411Z,17.23
2022-10-06T10:08:04.509Z,17.24
2022-10-06T10:10:30.909Z,17.19
2022-10-06T10:12:59.348Z,17.26
2022-10-06T10:15:35.610Z,17.53
2022-10-06T10:18:12.312Z,17.53
2022-10-06T10:20:52.386Z,17.40
2022-10-06T10:23:27.318Z,17.38
2022-10-06T10:26:01.795Z,17.51
2022-10-06T10:28:28.234Z,17.75
2022-10-06T10:31:22.236Z,17.74
2022-10-06T10:34:24.070Z,17.74
2022-10-06T10:37:00.836Z,17.54
2022-10-06T10:39:33.387Z,17.58
2022-10-06T10:42:04.830Z,17.85
2022-10-06T10:44:37.433Z,17.88
2022-10-06T10:47:27.959Z,17.81
2022-10-06T10:50:02.601Z,17.77
2022-10-06T10:52:34.469Z,18.08
2022-10-06T10:55:19.654Z,18.01
2022-10-06T10:57:48.409Z,17.84
2022-10-06T11:00:25.830Z,18.01
2022-10-06T11:02:54.979Z,18.17
2022-10-06T11:05:46.297Z,18.45
2022-10-06T11:08:26.935Z,18.35
2022-10-06T11:11:08.329Z,18.32
2022-10-06T11:13:48.340Z,18.25
2022-10-06T11:16:31.815Z,18.00
2022-10-06T11:19:15.628Z,17.92
2022-10-06T11:21:48.034Z,17.91
2022-10-06T11:24:26.466Z,17.97
2022-10-06T11:26:58.868Z,18.01
2022-10-06T11:29:37.446Z,18.01
2022-10-06T11:32:39.840Z,18.05
2022-10-06T11:35:20.068Z,18.08
2022-10-06T11:37:53.660Z,17.97
2022-10-06T11:40:55.004Z,17.90
2022-10-06T11:44:00.107Z,17.95
2022-10-06T11:46:32.283Z,18.02
2022-10-06T11:49:30.706Z,18.09
2022-10-06T11:52:17.033Z,18.10
2022-10-06T11:54:43.418Z,18.24
2022-10-06T11:57:30.890Z,18.32
2022-10-06T12:00:03.354Z,18.17
2022-10-06T12:02:32.553Z,18.16
2022-10-06T12:08:11.741Z,18.10
2022-10-06T12:10:49.003Z,18.03
2022-10-06T12:14:26.591Z,18.05
2022-10-06T12:19:24.432Z,17.96
2022-10-06T12:22:13.412Z,18.05
2022-10-06T12:25:18.577Z,18.18
2022-10-06T12:28:06.162Z,18.01
2022-10-06T12:30:51.391Z,18.11
2022-10-06T12:33:34.371Z,18.01
2022-10-06T12:36:06.881Z,18.05
2022-10-06T12:38:41.362Z,18.10
2022-10-06T12:41:14.280Z,18.19
2022-10-06T12:43:55.102Z,18.08
2022-10-06T12:46:28.753Z,18.07
2022-10-06T12:49:31.875Z,18.04
2022-10-06T12:52:08.014Z,18.01
2022-10-06T12:54:59.846Z,17.99
2022-10-06T12:57:30.718Z,17.91
2022-10-06T12:59:57.798Z,17.90
2022-10-06T13:02:27.709Z,17.87
2022-10-06T13:05:01.428Z,17.80
2022-10-06T13:07:30.928Z,17.94
2022-10-06T13:10:20.110Z,17.81
2022-10-06T13:12:50.155Z,17.72
2022-10-06T13:15:24.961Z,17.61
2022-10-06T13:17:55.199Z,17.76
2022-10-06T13:20:33.749Z,17.95
2022-10-06T13:23:03.042Z,17.72
2022-10-06T13:25:42.023Z,17.67
2022-10-06T13:28:42.336Z,17.67
2022-10-06T13:31:14.687Z,17.56
2022-10-06T13:33:46.027Z,17.53
2022-10-06T13:36:13.488Z,17.55
2022-10-06T13:38:41.712Z,17.47
2022-10-06T13:41:11.304Z,17.42
2022-10-06T13:43:41.660Z,17.45
2022-10-06T13:46:16.302Z,17.26
2022-10-06T13:48:47.645Z,17.36
2022-10-06T13:51:30.104Z,17.34
2022-10-06T13:54:03.705Z,17.23
2022-10-06T13:56:38.410Z,17.14
2022-10-06T13:59:38.260Z,17.11
2022-10-06T14:02:20.073Z,17.16
2022-10-06T14:05:29.326Z,17.16
2022-10-06T14:08:01.022Z,17.14
2022-10-06T14:10:31.273Z,17.11
2022-10-06T14:13:01.299Z,17.10
2022-10-06T14:15:57.407Z,17.08
2022-10-06T14:18:29.127Z,17.02
2022-10-06T14:20:59.363Z,17.04
2022-10-06T14:23:48.707Z,17.12
2022-10-06T14:26:16.884Z,17.13
2022-10-06T14:28:49.188Z,17.06
2022-10-06T14:31:15.991Z,17.03
2022-10-06T14:33:42.776Z,17.08
2022-10-06T14:36:16.257Z,17.24
2022-10-06T14:38:42.768Z,17.17
2022-10-06T14:41:09.332Z,17.09
2022-10-06T14:43:35.718Z,17.07
2022-10-06T14:46:05.468Z,17.00
2022-10-06T14:48:32.745Z,16.86
2022-10-06T14:51:03.251Z,16.84
2022-10-06T14:53:29.937Z,16.75
2022-10-06T14:56:04.361Z,16.75
2022-10-06T14:58:33.121Z,16.65
2022-10-06T15:01:12.410Z,16.53
2022-10-06T15:03:38.884Z,16.61
2022-10-06T15:06:26.417Z,16.63
2022-10-06T15:08:55.152Z,16.58
2022-10-06T15:11:23.784Z,16.47
2022-10-06T15:13:50.174Z,16.57
2022-10-06T15:16:20.716Z,16.38
2022-10-06T15:18:47.134Z,16.42
2022-10-06T15:21:13.568Z,16.24
2022-10-06T15:23:40.045Z,16.24
2022-10-06T15:26:25.413Z,16.21
2022-10-06T15:29:01.231Z,16.01
2022-10-06T15:31:36.483Z,16.13
2022-10-06T15:34:07.510Z,16.16
2022-10-06T15:36:36.299Z,16.07
2022-10-06T15:39:10.583Z,15.93
2022-10-06T15:41:38.683Z,16.02
2022-10-06T15:44:05.840Z,15.98
2022-10-06T15:46:40.471Z,15.91
2022-10-06T15:49:13.970Z,15.79
2022-10-06T15:51:51.901Z,15.68
2022-10-06T15:54:38.272Z,15.62
2022-10-06T15:57:10.079Z,15.51
2022-10-06T15:59:37.178Z,15.48
2022-10-06T16:02:07.496Z,15.50
2022-10-06T16:04:39.706Z,15.50
2022-10-06T16:07:07.004Z,15.40
2022-10-06T16:09:39.294Z,15.42
2022-10-06T16:12:11.134Z,15.33
2022-10-06T16:14:39.942Z,15.30
2022-10-06T16:17:07.423Z,15.18
2022-10-06T16:19:37.055Z,15.20
2022-10-06T16:22:05.059Z,15.14
2022-10-06T16:24:31.791Z,15.12
2022-10-06T16:26:59.923Z,15.14
2022-10-06T16:29:30.552Z,15.04
2022-10-06T16:31:57.809Z,14.97
2022-10-06T16:34:25.361Z,14.98
2022-10-06T16:36:51.724Z,14.95
2022-10-06T16:39:20.802Z,14.89
2022-10-06T16:41:48.022Z,14.93
2022-10-06T16:44:14.627Z,14.90
2022-10-06T16:46:41.245Z,14.89
2022-10-06T16:49:09.178Z,14.93
2022-10-06T16:51:40.151Z,14.82
2022-10-06T16:54:09.021Z,14.73
2022-10-06T16:56:41.251Z,14.67
2022-10-06T16:59:13.536Z,14.63
2022-10-06T17:01:42.811Z,14.66
2022-10-06T17:04:12.117Z,14.55
2022-10-06T17:06:43.966Z,14.45
2022-10-06T17:09:14.216Z,14.34
2022-10-06T17:11:46.425Z,14.25
2022-10-06T17:14:15.743Z,14.16
2022-10-06T17:16:43.939Z,14.10
2022-10-06T17:19:12.225Z,13.97
2022-10-06T17:21:48.832Z,13.89
2022-10-06T17:24:20.903Z,13.77
2022-10-06T17:26:49.189Z,13.80
2022-10-06T17:29:21.458Z,13.67
2022-10-06T17:31:50.655Z,13.60
2022-10-06T17:34:21.406Z,13.55
2022-10-06T17:36:50.927Z,13.61
2022-10-06T17:39:20.878Z,13.57
2022-10-06T17:41:49.083Z,13.46
2022-10-06T17:44:24.141Z,13.38
2022-10-06T17:46:52.624Z,13.32
2022-10-06T17:49:20.935Z,13.21
2022-10-06T17:51:48.136Z,13.15
2022-10-06T17:54:21.933Z,13.10
2022-10-06T17:56:51.138Z,13.03
2022-10-06T17:59:23.769Z,12.97
2022-10-06T18:01:52.017Z,12.94
2022-10-06T18:04:21.698Z,12.85
2022-10-06T18:06:48.502Z,12.88
2022-10-06T18:09:18.589Z,12.91
2022-10-06T18:11:48.401Z,12.80
2022-10-06T18:14:18.630Z,12.74
2022-10-06T18:16:49.956Z,12.66
2022-10-06T18:19:20.341Z,12.59
2022-10-06T18:21:49.593Z,12.50
2022-10-06T18:24:18.892Z,12.40
2022-10-06T18:26:48.207Z,12.38
2022-10-06T18:29:20.516Z,12.35
2022-10-06T18:31:49.552Z,12.33
2022-10-06T18:37:02.517Z,12.21
2022-10-06T18:39:31.276Z,12.15
2022-10-06T18:42:02.296Z,12.15
2022-10-06T18:44:47.206Z,12.20
2022-10-06T18:47:32.214Z,12.04
2022-10-06T18:49:58.647Z,11.97
2022-10-06T18:52:25.030Z,11.95
2022-10-06T18:54:51.686Z,11.78
2022-10-06T18:57:18.475Z,11.76
2022-10-06T18:59:45.072Z,11.76
2022-10-06T19:02:11.838Z,11.69
2022-10-06T19:04:39.302Z,11.62
2022-10-06T19:07:05.982Z,11.57
2022-10-06T19:09:32.348Z,11.55
2022-10-06T19:11:58.878Z,11.47
2022-10-06T19:14:31.494Z,11.46
2022-10-06T19:17:09.020Z,11.39
2022-10-06T19:19:38.161Z,11.38
2022-10-06T19:22:06.420Z,11.33
2022-10-06T19:24:32.943Z,11.29
2022-10-06T19:26:59.810Z,11.27
2022-10-06T19:29:26.884Z,11.22
2022-10-06T19:31:59.926Z,11.19
2022-10-06T19:34:26.556Z,11.14
2022-10-06T19:36:58.201Z,11.08
2022-10-06T19:39:27.454Z,11.10
2022-10-06T19:42:15.517Z,11.02
2022-10-06T19:44:44.615Z,10.96
2022-10-06T19:47:14.672Z,10.92
2022-10-06T19:49:42.248Z,10.92
2022-10-06T19:52:10.763Z,10.87
2022-10-06T19:54:38.507Z,10.84
2022-10-06T19:57:08.407Z,10.77
2022-10-06T19:59:38.380Z,10.77
2022-10-06T20:02:08.411Z,10.73
2022-10-06T20:04:35.229Z,10.68
2022-10-06T20:07:01.909Z,10.63
2022-10-06T20:09:33.461Z,10.64
2022-10-06T20:12:01.487Z,10.58
2022-10-06T20:14:30.521Z,10.57
2022-10-06T20:16:57.388Z,10.55
2022-10-06T20:19:25.394Z,10.50
2022-10-06T20:21:53.139Z,10.45
2022-10-06T20:24:25.627Z,10.44
2022-10-06T20:26:53.352Z,10.40
2022-10-06T20:29:25.642Z,10.35
2022-10-06T20:31:55.098Z,10.31
2022-10-06T20:34:24.676Z,10.28
2022-10-06T20:36:56.007Z,10.22
2022-10-06T20:39:43.926Z,10.16
2022-10-06T20:42:15.335Z,10.12
2022-10-06T20:44:42.717Z,10.07
2022-10-06T20:47:10.544Z,9.96
2022-10-06T20:49:37.521Z,9.89
2022-10-06T20:52:04.721Z,9.86
2022-10-06T20:54:34.738Z,9.77
2022-10-06T20:57:03.837Z,9.70
2022-10-06T20:59:35.432Z,9.68
2022-10-06T21:02:03.073Z,9.61
2022-10-06T21:04:32.811Z,9.54
2022-10-06T21:07:05.640Z,9.49
2022-10-06T21:09:32.108Z,9.49
2022-10-06T21:11:58.575Z,9.42
2022-10-06T21:14:25.381Z,9.35
2022-10-06T21:16:52.397Z,9.33
2022-10-06T21:19:21.364Z,9.29
2022-10-06T21:21:53.248Z,9.28
2022-10-06T21:24:20.446Z,9.26
2022-10-06T21:26:47.607Z,9.23
2022-10-06T21:29:15.674Z,9.22
2022-10-06T21:31:43.321Z,9.20
2022-10-06T21:34:10.341Z,9.16
2022-10-06T21:36:37.069Z,9.14
2022-10-06T21:39:06.499Z,9.14
2022-10-06T21:41:38.508Z,9.14
2022-10-06T21:44:16.330Z,9.11
2022-10-06T21:46:54.197Z,9.10
2022-10-06T21:49:22.699Z,9.08
2022-10-06T21:51:52.407Z,9.06
2022-10-06T21:54:20.861Z,9.06
2022-10-06T21:56:52.373Z,9.14
2022-10-06T21:59:18.793Z,9.07
2022-10-06T22:01:46.820Z,9.04
2022-10-06T22:04:14.657Z,9.04
2022-10-06T22:06:42.348Z,9.00
2022-10-06T22:09:13.908Z,9.02
2022-10-06T22:11:40.928Z,9.04
2022-10-06T22:14:11.639Z,9.11
2022-10-06T22:16:38.978Z,9.17
2022-10-06T22:19:11.064Z,9.20
2022-10-06T22:21:40.082Z,9.23
2022-10-06T22:24:12.533Z,9.15
2022-10-06T22:26:40.780Z,9.20
2022-10-06T22:29:11.992Z,9.17
2022-10-06T22:31:40.573Z,9.19
2022-10-06T22:34:07.897Z,9.22
2022-10-06T22:36:37.144Z,9.33
2022-10-06T22:39:03.948Z,9.32
2022-10-06T22:41:30.596Z,9.35
2022-10-06T22:43:58.329Z,9.31
2022-10-06T22:46:34.325Z,9.36
2022-10-06T22:49:01.605Z,9.41
2022-10-06T22:51:30.843Z,9.36
2022-10-06T22:53:59.130Z,9.34
2022-10-06T22:56:30.455Z,9.34
2022-10-06T22:58:59.627Z,9.35
2022-10-06T23:01:27.510Z,9.36
2022-10-06T23:03:55.492Z,9.40
2022-10-06T23:06:24.938Z,9.34
2022-10-06T23:08:52.152Z,9.34
2022-10-06T23:11:22.971Z,9.29
2022-10-06T23:13:53.247Z,9.29
2022-10-06T23:16:20.389Z,9.29
2022-10-06T23:18:47.809Z,9.27
2022-10-06T23:21:23.804Z,9.31
2022-10-06T23:23:58.390Z,9.33
2022-10-06T23:26:29.320Z,9.37
2022-10-06T23:28:58.231Z,9.32
2022-10-06T23:31:28.037Z,9.33
2022-10-06T23:33:55.191Z,9.39
2022-10-06T23:36:21.713Z,9.46
2022-10-06T23:38:50.494Z,9.48
2022-10-06T23:41:17.473Z,9.57
2022-10-06T23:43:44.072Z,9.61
2022-10-06T23:46:10.964Z,9.62
2022-10-06T23:48:44.649Z,9.72
2022-10-06T23:51:15.255Z,9.76
2022-10-06T23:53:43.117Z,9.78
2022-10-06T23:56:12.984Z,9.85
2022-10-06T23:58:39.527Z,9.91
